Latest Weather Observations for Thevenard

IDS60801

Issued at 4:02 pm CST Tuesday 28 April 2015 (issued every 30 minutes, with the page automatically refreshed every 10 minutes)

About weather observations | Map of weather stations | Latest weather observations for SA | Other Formats
Station Details ID: 018200 Name: THEVENARD WIND Lat: -32.18 Lon: 133.63 Height: 8.85 m
Data from the previous 72 hours. | See also: Recent months for locations in South Australia
Date/Time
CST
Temp
°C
App
Temp
°C
Dew
Point
Rel
Hum
%
Delta-T
°C
Wind Press
QNH
hPa
Press
MSL
hPa
Rain
since 9 am
mm
Dir
 
Spd
km/h
Gust
km/h
Spd
kts
Gust
kts
28/04:00pm - - - - - S 28 32 15 17 - - -
28/03:30pm - - - - - S 24 30 13 16 - - -
28/03:00pm - - - - - S 24 30 13 16 - - -
28/02:30pm - - - - - SSW 24 26 13 14 - - -
28/02:00pm - - - - - SSW 24 28 13 15 - - -
28/01:30pm - - - - - S 24 30 13 16 - - -
28/01:00pm - - - - - S 24 28 13 15 - - -
28/12:30pm - - - - - S 19 22 10 12 - - -
28/12:00pm - - - - - S 15 20 8 11 - - -
28/11:30am - - - - - SSW 17 19 9 10 - - -
28/11:00am - - - - - S 7 11 4 6 - - -
28/10:30am - - - - - SE 9 15 5 8 - - -
28/10:00am - - - - - ESE 13 17 7 9 - - -
28/09:30am - - - - - SE 9 11 5 6 - - -
28/09:00am - - - - - SE 7 11 4 6 - - -
28/08:30am - - - - - ENE 13 15 7 8 - - -
28/08:00am - - - - - ENE 15 17 8 9 - - -
28/07:30am - - - - - ENE 11 11 6 6 - - -
28/07:00am - - - - - ESE 13 15 7 8 - - -
28/06:30am - - - - - ESE 15 19 8 10 - - -
28/06:00am - - - - - ESE 15 19 8 10 - - -
28/05:30am - - - - - ESE 15 20 8 11 - - -
28/05:00am - - - - - ESE 17 19 9 10 - - -
28/04:30am - - - - - ESE 19 20 10 11 - - -
28/04:00am - - - - - ESE 17 20 9 11 - - -
28/03:30am - - - - - ESE 19 22 10 12 - - -
28/03:00am - - - - - ESE 19 22 10 12 - - -
28/02:30am - - - - - E 15 20 8 11 - - -
28/02:00am - - - - - SE 19 24 10 13 - - -
28/01:30am - - - - - SE 17 24 9 13 - - -
28/01:00am - - - - - ESE 17 24 9 13 - - -
28/12:30am - - - - - SE 19 22 10 12 - - -
28/12:00am - - - - - SE 17 22 9 12 - - -
 
Date/Time
CST
Temp
°C
App
Temp
°C
Dew
Point
Rel
Hum
%
Delta-T
°C
Wind Press
QNH
hPa
Press
MSL
hPa
Rain
since 9 am
mm
Dir
 
Spd
km/h
Gust
km/h
Spd
kts
Gust
kts
27/11:30pm - - - - - SE 22 26 12 14 - - -
27/11:00pm - - - - - SE 19 24 10 13 - - -
27/10:30pm - - - - - SSE 22 28 12 15 - - -
27/10:00pm - - - - - SSE 26 30 14 16 - - -
27/09:30pm - - - - - SSE 26 30 14 16 - - -
27/09:00pm - - - - - SSE 28 32 15 17 - - -
27/08:30pm - - - - - SSE 30 35 16 19 - - -
27/08:00pm - - - - - SSE 32 37 17 20 - - -
27/07:30pm - - - - - SSE 24 32 13 17 - - -
27/07:00pm - - - - - SSE 28 32 15 17 - - -
27/06:30pm - - - - - S 24 30 13 16 - - -
27/06:00pm - - - - - S 22 26 12 14 - - -
27/05:30pm - - - - - S 20 24 11 13 - - -
27/05:00pm - - - - - S 22 24 12 13 - - -
27/04:30pm - - - - - S 22 26 12 14 - - -
27/04:00pm - - - - - S 19 22 10 12 - - -
27/03:30pm - - - - - S 17 22 9 12 - - -
27/03:00pm - - - - - SSW 15 20 8 11 - - -
27/02:30pm - - - - - SSW 15 20 8 11 - - -
27/02:00pm - - - - - SW 13 15 7 8 - - -
27/01:30pm - - - - - WSW 9 11 5 6 - - -
27/01:00pm - - - - - W 4 6 2 3 - - -
27/12:30pm - - - - - W 4 7 2 4 - - -
27/12:00pm - - - - - SW 9 11 5 6 - - -
27/11:30am - - - - - SSE 13 19 7 10 - - -
27/11:00am - - - - - SSE 22 28 12 15 - - -
27/10:30am - - - - - SE 11 17 6 9 - - -
27/10:00am - - - - - SE 13 19 7 10 - - -
27/09:30am - - - - - SSE 13 17 7 9 - - -
27/09:00am - - - - - ENE 11 13 6 7 - - -
27/08:30am - - - - - ENE 13 17 7 9 - - -
27/08:00am - - - - - NE 11 15 6 8 - - -
27/07:30am - - - - - NNE 11 15 6 8 - - -
27/07:00am - - - - - NE 15 17 8 9 - - -
27/06:30am - - - - - E 11 13 6 7 - - -
27/06:00am - - - - - E 11 13 6 7 - - -
27/05:30am - - - - - ENE 15 17 8 9 - - -
27/05:00am - - - - - ENE 13 15 7 8 - - -
27/04:30am - - - - - E 13 17 7 9 - - -
27/04:00am - - - - - E 15 17 8 9 - - -
27/03:30am - - - - - E 17 19 9 10 - - -
27/03:00am - - - - - E 17 20 9 11 - - -
27/02:30am - - - - - E 17 19 9 10 - - -
27/02:00am - - - - - ESE 24 32 13 17 - - -
27/01:30am - - - - - E 17 22 9 12 - - -
27/01:00am - - - - - ESE 11 15 6 8 - - -
27/12:30am - - - - - ESE 15 19 8 10 - - -
27/12:00am - - - - - ESE 17 26 9 14 - - -
 
Date/Time
CST
Temp
°C
App
Temp
°C
Dew
Point
Rel
Hum
%
Delta-T
°C
Wind Press
QNH
hPa
Press
MSL
hPa
Rain
since 9 am
mm
Dir
 
Spd
km/h
Gust
km/h
Spd
kts
Gust
kts
26/11:30pm - - - - - SE 20 24 11 13 - - -
26/11:00pm - - - - - SE 24 28 13 15 - - -
26/10:30pm - - - - - SSE 26 32 14 17 - - -
26/10:00pm - - - - - SSE 26 32 14 17 - - -
26/09:30pm - - - - - SSE 28 33 15 18 - - -
26/09:00pm - - - - - S 26 30 14 16 - - -
26/08:30pm - - - - - S 28 32 15 17 - - -
26/08:00pm - - - - - S 28 32 15 17 - - -
26/07:30pm - - - - - S 26 32 14 17 - - -
26/07:00pm - - - - - S 24 28 13 15 - - -
26/06:30pm - - - - - S 20 26 11 14 - - -
26/06:00pm - - - - - S 22 26 12 14 - - -
26/05:30pm - - - - - S 24 28 13 15 - - -
26/05:00pm - - - - - S 20 26 11 14 - - -
26/04:30pm - - - - - S 20 24 11 13 - - -
26/04:00pm - - - - - S 20 26 11 14 - - -
26/03:30pm - - - - - S 24 30 13 16 - - -
26/03:00pm - - - - - S 22 26 12 14 - - -
26/02:30pm - - - - - S 20 24 11 13 - - -
26/02:00pm - - - - - SSE 11 17 6 9 - - -
26/01:30pm - - - - - S 9 13 5 7 - - -
26/01:00pm - - - - - S 11 15 6 8 - - -
26/12:30pm - - - - - S 13 15 7 8 - - -
26/12:00pm - - - - - SSW 7 11 4 6 - - -
26/11:30am - - - - - SSW 7 7 4 4 - - -
26/11:00am - - - - - SSE 7 9 4 5 - - -
26/10:30am - - - - - ESE 9 13 5 7 - - -
26/10:00am - - - - - SE 7 13 4 7 - - -
26/09:30am - - - - - ESE 11 17 6 9 - - -
26/09:00am - - - - - SSE 30 39 16 21 - - -
26/08:30am - - - - - S 17 20 9 11 - - -
26/08:00am - - - - - SSE 15 17 8 9 - - -
26/07:30am - - - - - S 13 15 7 8 - - -
26/07:00am - - - - - ESE 9 15 5 8 - - -
26/06:30am - - - - - ESE 9 19 5 10 - - -
26/06:00am - - - - - E 7 11 4 6 - - -
26/05:30am - - - - - SE 9 17 5 9 - - -
26/05:00am - - - - - SE 15 19 8 10 - - -
26/04:30am - - - - - SE 19 20 10 11 - - -
26/04:00am - - - - - SSE 19 24 10 13 - - -
26/03:30am - - - - - S 22 28 12 15 - - -
26/03:00am - - - - - SSE 30 33 16 18 - - -
26/02:30am - - - - - S 20 24 11 13 - - -
26/02:00am - - - - - S 20 24 11 13 - - -
26/01:30am - - - - - S 19 22 10 12 - - -
26/01:00am - - - - - SSE 15 19 8 10 - - -
26/12:30am - - - - - SE 11 19 6 10 - - -
26/12:00am - - - - - S 20 26 11 14 - - -
 
Date/Time
CST
Temp
°C
App
Temp
°C
Dew
Point
Rel
Hum
%
Delta-T
°C
Wind Press
QNH
hPa
Press
MSL
hPa
Rain
since 9 am
mm
Dir
 
Spd
km/h
Gust
km/h
Spd
kts
Gust
kts
25/11:30pm - - - - - SSW 28 33 15 18 - - -
25/11:00pm - - - - - SSW 35 41 19 22 - - -
25/10:30pm - - - - - SSW 24 32 13 17 - - -
25/10:00pm - - - - - S 24 30 13 16 - - -
25/09:30pm - - - - - S 22 32 12 17 - - -
25/09:00pm - - - - - SSE 24 30 13 16 - - -
25/08:30pm - - - - - S 26 32 14 17 - - -
25/08:00pm - - - - - S 22 26 12 14 - - -
25/07:30pm - - - - - S 26 32 14 17 - - -
25/07:00pm - - - - - S 28 33 15 18 - - -
25/06:30pm - - - - - SSE 28 33 15 18 - - -
25/06:00pm - - - - - S 24 28 13 15 - - -
25/05:30pm - - - - - S 28 32 15 17 - - -
25/05:00pm - - - - - S 19 30 10 16 - - -
25/04:30pm - - - - - SSW 33 41 18 22 - - -

Other Formats:

Comma delimited format used in spreadsheet applications
http://www.bom.gov.au/fwo/IDS60801/IDS60801.95653.axf

JavaScript Object Notation format (JSON) in row-major order
http://www.bom.gov.au/fwo/IDS60801/IDS60801.95653.json